sensor_id;sensor_type;location;lat;lon;timestamp;P1;durP1;ratioP1;P2;durP2;ratioP2
7835;SDS011;3963;42.658;23.298;2022-08-21T00:00:21;15.87;;;10.37;;
7835;SDS011;3963;42.658;23.298;2022-08-21T00:02:51;20.20;;;11.93;;
7835;SDS011;3963;42.658;23.298;2022-08-21T00:05:21;27.67;;;14.90;;
7835;SDS011;3963;42.658;23.298;2022-08-21T00:07:48;33.03;;;17.17;;
7835;SDS011;3963;42.658;23.298;2022-08-21T00:10:16;34.53;;;17.80;;
7835;SDS011;3963;42.658;23.298;2022-08-21T00:12:44;34.57;;;17.43;;
7835;SDS011;3963;42.658;23.298;2022-08-21T00:15:13;31.37;;;17.17;;
7835;SDS011;3963;42.658;23.298;2022-08-21T00:17:41;30.67;;;16.83;;
7835;SDS011;3963;42.658;23.298;2022-08-21T00:20:08;32.87;;;17.20;;
7835;SDS011;3963;42.658;23.298;2022-08-21T00:22:37;28.37;;;16.43;;
7835;SDS011;3963;42.658;23.298;2022-08-21T00:25:05;22.73;;;13.63;;
7835;SDS011;3963;42.658;23.298;2022-08-21T00:27:34;23.37;;;12.90;;
7835;SDS011;3963;42.658;23.298;2022-08-21T00:30:02;21.93;;;11.37;;
7835;SDS011;3963;42.658;23.298;2022-08-21T00:32:30;16.07;;;10.27;;
7835;SDS011;3963;42.658;23.298;2022-08-21T00:34:56;17.87;;;10.13;;
7835;SDS011;3963;42.658;23.298;2022-08-21T00:37:24;16.20;;;10.80;;
7835;SDS011;3963;42.658;23.298;2022-08-21T00:39:52;17.70;;;10.47;;
7835;SDS011;3963;42.658;23.298;2022-08-21T00:42:19;18.87;;;9.20;;
7835;SDS011;3963;42.658;23.298;2022-08-21T00:44:47;14.00;;;8.60;;
7835;SDS011;3963;42.658;23.298;2022-08-21T00:47:15;14.07;;;8.57;;
7835;SDS011;3963;42.658;23.298;2022-08-21T00:49:43;13.10;;;8.37;;
7835;SDS011;3963;42.658;23.298;2022-08-21T00:52:12;16.00;;;7.93;;
7835;SDS011;3963;42.658;23.298;2022-08-21T00:54:42;14.80;;;8.17;;
7835;SDS011;3963;42.658;23.298;2022-08-21T00:57:10;15.17;;;7.60;;
7835;SDS011;3963;42.658;23.298;2022-08-21T00:59:41;17.27;;;9.03;;
7835;SDS011;3963;42.658;23.298;2022-08-21T01:02:13;15.10;;;8.20;;
7835;SDS011;3963;42.658;23.298;2022-08-21T01:04:40;15.13;;;8.30;;
7835;SDS011;3963;42.658;23.298;2022-08-21T01:07:07;13.77;;;7.77;;
7835;SDS011;3963;42.658;23.298;2022-08-21T01:09:34;16.93;;;9.10;;
7835;SDS011;3963;42.658;23.298;2022-08-21T01:12:02;16.63;;;9.00;;
7835;SDS011;3963;42.658;23.298;2022-08-21T01:14:30;15.03;;;7.03;;
7835;SDS011;3963;42.658;23.298;2022-08-21T01:16:58;10.80;;;6.30;;
7835;SDS011;3963;42.658;23.298;2022-08-21T01:19:28;14.70;;;7.83;;
7835;SDS011;3963;42.658;23.298;2022-08-21T01:21:57;11.90;;;7.20;;
7835;SDS011;3963;42.658;23.298;2022-08-21T01:24:25;10.37;;;6.50;;
7835;SDS011;3963;42.658;23.298;2022-08-21T01:26:52;11.17;;;5.97;;
7835;SDS011;3963;42.658;23.298;2022-08-21T01:29:23;12.33;;;6.23;;
7835;SDS011;3963;42.658;23.298;2022-08-21T01:31:57;12.20;;;6.20;;
7835;SDS011;3963;42.658;23.298;2022-08-21T01:34:24;14.70;;;6.70;;
7835;SDS011;3963;42.658;23.298;2022-08-21T01:36:51;8.17;;;6.00;;
7835;SDS011;3963;42.658;23.298;2022-08-21T01:39:19;9.73;;;5.67;;
7835;SDS011;3963;42.658;23.298;2022-08-21T01:41:46;12.53;;;6.07;;
7835;SDS011;3963;42.658;23.298;2022-08-21T01:44:13;9.10;;;5.40;;
7835;SDS011;3963;42.658;23.298;2022-08-21T01:46:40;10.30;;;4.97;;
7835;SDS011;3963;42.658;23.298;2022-08-21T01:49:06;10.70;;;5.20;;
7835;SDS011;3963;42.658;23.298;2022-08-21T01:51:33;7.40;;;4.93;;
7835;SDS011;3963;42.658;23.298;2022-08-21T01:54:00;10.30;;;4.93;;
7835;SDS011;3963;42.658;23.298;2022-08-21T01:56:31;8.93;;;4.53;;
7835;SDS011;3963;42.658;23.298;2022-08-21T01:59:03;11.30;;;5.47;;
7835;SDS011;3963;42.658;23.298;2022-08-21T02:01:30;8.50;;;4.83;;
7835;SDS011;3963;42.658;23.298;2022-08-21T02:03:57;10.00;;;4.93;;
7835;SDS011;3963;42.658;23.298;2022-08-21T02:06:25;10.57;;;4.80;;
7835;SDS011;3963;42.658;23.298;2022-08-21T02:08:52;7.87;;;4.83;;
7835;SDS011;3963;42.658;23.298;2022-08-21T02:11:19;6.77;;;4.83;;
7835;SDS011;3963;42.658;23.298;2022-08-21T02:13:47;10.53;;;4.80;;
7835;SDS011;3963;42.658;23.298;2022-08-21T02:16:14;9.13;;;4.73;;
7835;SDS011;3963;42.658;23.298;2022-08-21T02:18:42;9.80;;;5.13;;
7835;SDS011;3963;42.658;23.298;2022-08-21T02:21:09;7.57;;;4.93;;
7835;SDS011;3963;42.658;23.298;2022-08-21T02:23:36;12.43;;;5.47;;
7835;SDS011;3963;42.658;23.298;2022-08-21T02:26:04;7.97;;;5.20;;
7835;SDS011;3963;42.658;23.298;2022-08-21T02:28:33;7.70;;;4.70;;
7835;SDS011;3963;42.658;23.298;2022-08-21T02:31:02;9.00;;;5.33;;
7835;SDS011;3963;42.658;23.298;2022-08-21T02:33:29;12.47;;;5.30;;
7835;SDS011;3963;42.658;23.298;2022-08-21T02:35:56;9.13;;;4.90;;
7835;SDS011;3963;42.658;23.298;2022-08-21T02:38:26;8.73;;;5.17;;
7835;SDS011;3963;42.658;23.298;2022-08-21T02:40:55;8.00;;;4.70;;
7835;SDS011;3963;42.658;23.298;2022-08-21T02:43:24;9.27;;;5.83;;
7835;SDS011;3963;42.658;23.298;2022-08-21T02:45:52;11.07;;;5.07;;
7835;SDS011;3963;42.658;23.298;2022-08-21T02:48:22;11.37;;;4.67;;
7835;SDS011;3963;42.658;23.298;2022-08-21T02:50:52;9.77;;;4.40;;
7835;SDS011;3963;42.658;23.298;2022-08-21T02:53:21;9.67;;;4.43;;
7835;SDS011;3963;42.658;23.298;2022-08-21T02:55:49;9.53;;;4.27;;
7835;SDS011;3963;42.658;23.298;2022-08-21T02:58:22;9.73;;;5.63;;
7835;SDS011;3963;42.658;23.298;2022-08-21T03:00:51;10.57;;;5.27;;
7835;SDS011;3963;42.658;23.298;2022-08-21T03:03:19;7.37;;;5.00;;
7835;SDS011;3963;42.658;23.298;2022-08-21T03:05:48;9.33;;;4.77;;
7835;SDS011;3963;42.658;23.298;2022-08-21T03:08:15;7.70;;;4.57;;
7835;SDS011;3963;42.658;23.298;2022-08-21T03:10:43;10.57;;;4.47;;
7835;SDS011;3963;42.658;23.298;2022-08-21T03:13:11;8.77;;;4.97;;
7835;SDS011;3963;42.658;23.298;2022-08-21T03:15:39;9.47;;;5.40;;
7835;SDS011;3963;42.658;23.298;2022-08-21T03:18:06;9.07;;;4.80;;
7835;SDS011;3963;42.658;23.298;2022-08-21T03:20:35;5.50;;;4.70;;
7835;SDS011;3963;42.658;23.298;2022-08-21T03:23:05;8.17;;;4.43;;
7835;SDS011;3963;42.658;23.298;2022-08-21T03:25:32;7.07;;;4.33;;
7835;SDS011;3963;42.658;23.298;2022-08-21T03:28:01;10.67;;;4.50;;
7835;SDS011;3963;42.658;23.298;2022-08-21T03:30:30;9.07;;;4.07;;
7835;SDS011;3963;42.658;23.298;2022-08-21T03:32:57;6.13;;;4.17;;
7835;SDS011;3963;42.658;23.298;2022-08-21T03:35:25;11.50;;;4.37;;
7835;SDS011;3963;42.658;23.298;2022-08-21T03:37:53;6.63;;;5.47;;
7835;SDS011;3963;42.658;23.298;2022-08-21T03:40:22;7.57;;;4.03;;
7835;SDS011;3963;42.658;23.298;2022-08-21T03:42:49;10.40;;;4.30;;
7835;SDS011;3963;42.658;23.298;2022-08-21T03:45:16;8.47;;;4.57;;
7835;SDS011;3963;42.658;23.298;2022-08-21T03:47:51;6.43;;;4.10;;
7835;SDS011;3963;42.658;23.298;2022-08-21T03:50:19;7.13;;;4.20;;
7835;SDS011;3963;42.658;23.298;2022-08-21T03:52:46;6.60;;;3.70;;
7835;SDS011;3963;42.658;23.298;2022-08-21T03:55:12;10.07;;;3.87;;
7835;SDS011;3963;42.658;23.298;2022-08-21T03:57:41;7.97;;;3.97;;
7835;SDS011;3963;42.658;23.298;2022-08-21T04:00:08;8.30;;;4.33;;
7835;SDS011;3963;42.658;23.298;2022-08-21T04:02:37;9.50;;;4.70;;
7835;SDS011;3963;42.658;23.298;2022-08-21T04:05:04;12.40;;;4.40;;
7835;SDS011;3963;42.658;23.298;2022-08-21T04:07:31;8.03;;;4.40;;
7835;SDS011;3963;42.658;23.298;2022-08-21T04:09:59;6.17;;;4.70;;
7835;SDS011;3963;42.658;23.298;2022-08-21T04:12:26;11.30;;;5.00;;
7835;SDS011;3963;42.658;23.298;2022-08-21T04:14:54;12.87;;;5.70;;
7835;SDS011;3963;42.658;23.298;2022-08-21T04:17:21;9.87;;;4.50;;
7835;SDS011;3963;42.658;23.298;2022-08-21T04:19:48;12.23;;;6.17;;
7835;SDS011;3963;42.658;23.298;2022-08-21T04:22:15;12.17;;;5.77;;
7835;SDS011;3963;42.658;23.298;2022-08-21T04:24:42;8.33;;;5.37;;
7835;SDS011;3963;42.658;23.298;2022-08-21T04:27:09;8.73;;;4.83;;
7835;SDS011;3963;42.658;23.298;2022-08-21T04:29:37;10.73;;;4.70;;
7835;SDS011;3963;42.658;23.298;2022-08-21T04:32:06;8.93;;;5.03;;
7835;SDS011;3963;42.658;23.298;2022-08-21T04:34:32;9.73;;;6.00;;
7835;SDS011;3963;42.658;23.298;2022-08-21T04:36:59;9.57;;;5.00;;
7835;SDS011;3963;42.658;23.298;2022-08-21T04:39:26;11.37;;;5.67;;
7835;SDS011;3963;42.658;23.298;2022-08-21T04:41:53;9.80;;;5.97;;
7835;SDS011;3963;42.658;23.298;2022-08-21T04:44:19;10.57;;;6.17;;
7835;SDS011;3963;42.658;23.298;2022-08-21T04:46:46;9.67;;;5.73;;
7835;SDS011;3963;42.658;23.298;2022-08-21T04:49:15;9.07;;;5.90;;
7835;SDS011;3963;42.658;23.298;2022-08-21T04:51:42;14.40;;;6.60;;
7835;SDS011;3963;42.658;23.298;2022-08-21T04:54:10;12.03;;;7.13;;
7835;SDS011;3963;42.658;23.298;2022-08-21T04:56:41;10.07;;;7.07;;
7835;SDS011;3963;42.658;23.298;2022-08-21T04:59:12;15.13;;;6.97;;
7835;SDS011;3963;42.658;23.298;2022-08-21T05:01:42;12.37;;;7.00;;
7835;SDS011;3963;42.658;23.298;2022-08-21T05:04:12;12.20;;;6.90;;
7835;SDS011;3963;42.658;23.298;2022-08-21T05:06:43;11.17;;;7.50;;
7835;SDS011;3963;42.658;23.298;2022-08-21T05:09:12;13.77;;;7.27;;
7835;SDS011;3963;42.658;23.298;2022-08-21T05:11:42;16.03;;;7.57;;
7835;SDS011;3963;42.658;23.298;2022-08-21T05:14:09;16.47;;;7.20;;
7835;SDS011;3963;42.658;23.298;2022-08-21T05:16:37;11.43;;;7.57;;
7835;SDS011;3963;42.658;23.298;2022-08-21T05:19:05;11.67;;;7.00;;
7835;SDS011;3963;42.658;23.298;2022-08-21T05:21:35;10.20;;;6.97;;
7835;SDS011;3963;42.658;23.298;2022-08-21T05:24:04;13.93;;;7.20;;
7835;SDS011;3963;42.658;23.298;2022-08-21T05:26:31;11.80;;;7.47;;
7835;SDS011;3963;42.658;23.298;2022-08-21T05:28:57;13.33;;;7.37;;
7835;SDS011;3963;42.658;23.298;2022-08-21T05:31:24;11.37;;;7.43;;
7835;SDS011;3963;42.658;23.298;2022-08-21T05:33:51;15.00;;;7.03;;
7835;SDS011;3963;42.658;23.298;2022-08-21T05:36:18;14.60;;;7.73;;
7835;SDS011;3963;42.658;23.298;2022-08-21T05:38:47;11.50;;;7.23;;
7835;SDS011;3963;42.658;23.298;2022-08-21T05:41:13;12.73;;;7.00;;
7835;SDS011;3963;42.658;23.298;2022-08-21T05:43:40;10.50;;;6.50;;
7835;SDS011;3963;42.658;23.298;2022-08-21T05:46:07;11.13;;;6.57;;
7835;SDS011;3963;42.658;23.298;2022-08-21T05:48:35;9.77;;;6.17;;
7835;SDS011;3963;42.658;23.298;2022-08-21T05:51:04;11.43;;;7.30;;
7835;SDS011;3963;42.658;23.298;2022-08-21T05:53:33;10.13;;;6.37;;
7835;SDS011;3963;42.658;23.298;2022-08-21T05:56:02;9.20;;;6.60;;
7835;SDS011;3963;42.658;23.298;2022-08-21T05:58:30;9.30;;;6.27;;
7835;SDS011;3963;42.658;23.298;2022-08-21T06:00:58;13.83;;;6.43;;
7835;SDS011;3963;42.658;23.298;2022-08-21T06:03:26;10.87;;;6.20;;
7835;SDS011;3963;42.658;23.298;2022-08-21T06:05:55;11.50;;;6.17;;
7835;SDS011;3963;42.658;23.298;2022-08-21T06:08:22;10.23;;;5.90;;
7835;SDS011;3963;42.658;23.298;2022-08-21T06:10:50;8.60;;;6.20;;
7835;SDS011;3963;42.658;23.298;2022-08-21T06:13:20;9.50;;;6.10;;
7835;SDS011;3963;42.658;23.298;2022-08-21T06:15:47;9.83;;;6.50;;
7835;SDS011;3963;42.658;23.298;2022-08-21T06:18:15;9.80;;;6.40;;
7835;SDS011;3963;42.658;23.298;2022-08-21T06:20:42;12.50;;;6.90;;
7835;SDS011;3963;42.658;23.298;2022-08-21T06:23:10;11.20;;;7.10;;
7835;SDS011;3963;42.658;23.298;2022-08-21T06:25:37;12.23;;;7.50;;
7835;SDS011;3963;42.658;23.298;2022-08-21T06:28:05;13.30;;;6.57;;
7835;SDS011;3963;42.658;23.298;2022-08-21T06:30:35;13.53;;;7.23;;
7835;SDS011;3963;42.658;23.298;2022-08-21T06:33:03;10.00;;;7.27;;
7835;SDS011;3963;42.658;23.298;2022-08-21T06:35:32;12.73;;;7.67;;
7835;SDS011;3963;42.658;23.298;2022-08-21T06:37:59;9.90;;;6.70;;
7835;SDS011;3963;42.658;23.298;2022-08-21T06:40:26;10.47;;;6.93;;
7835;SDS011;3963;42.658;23.298;2022-08-21T06:42:54;14.33;;;7.23;;
7835;SDS011;3963;42.658;23.298;2022-08-21T06:45:21;10.77;;;7.37;;
7835;SDS011;3963;42.658;23.298;2022-08-21T06:47:50;11.83;;;6.83;;
7835;SDS011;3963;42.658;23.298;2022-08-21T06:50:17;11.77;;;7.70;;
7835;SDS011;3963;42.658;23.298;2022-08-21T06:52:44;13.67;;;7.30;;
7835;SDS011;3963;42.658;23.298;2022-08-21T06:55:11;8.30;;;7.13;;
7835;SDS011;3963;42.658;23.298;2022-08-21T06:57:38;11.93;;;7.33;;
7835;SDS011;3963;42.658;23.298;2022-08-21T07:00:05;12.43;;;7.17;;
7835;SDS011;3963;42.658;23.298;2022-08-21T07:02:34;15.10;;;8.33;;
7835;SDS011;3963;42.658;23.298;2022-08-21T07:05:03;14.77;;;7.73;;
7835;SDS011;3963;42.658;23.298;2022-08-21T07:07:31;13.37;;;8.43;;
7835;SDS011;3963;42.658;23.298;2022-08-21T07:09:58;18.93;;;7.57;;
7835;SDS011;3963;42.658;23.298;2022-08-21T07:12:24;9.23;;;5.80;;
7835;SDS011;3963;42.658;23.298;2022-08-21T07:14:52;8.50;;;6.07;;
7835;SDS011;3963;42.658;23.298;2022-08-21T07:17:19;7.43;;;5.77;;
7835;SDS011;3963;42.658;23.298;2022-08-21T07:19:45;10.13;;;5.93;;
7835;SDS011;3963;42.658;23.298;2022-08-21T07:22:14;12.30;;;5.70;;
7835;SDS011;3963;42.658;23.298;2022-08-21T07:24:44;8.10;;;6.17;;
7835;SDS011;3963;42.658;23.298;2022-08-21T07:27:11;11.50;;;5.67;;
7835;SDS011;3963;42.658;23.298;2022-08-21T07:29:38;11.70;;;9.23;;
7835;SDS011;3963;42.658;23.298;2022-08-21T07:32:05;11.70;;;7.90;;
7835;SDS011;3963;42.658;23.298;2022-08-21T07:34:32;10.53;;;7.00;;
7835;SDS011;3963;42.658;23.298;2022-08-21T07:36:59;12.37;;;6.07;;
7835;SDS011;3963;42.658;23.298;2022-08-21T07:39:27;11.43;;;6.83;;
7835;SDS011;3963;42.658;23.298;2022-08-21T07:41:54;14.60;;;7.70;;
7835;SDS011;3963;42.658;23.298;2022-08-21T07:44:21;10.97;;;6.30;;
7835;SDS011;3963;42.658;23.298;2022-08-21T07:46:47;10.33;;;6.20;;
7835;SDS011;3963;42.658;23.298;2022-08-21T07:49:14;12.40;;;6.80;;
7835;SDS011;3963;42.658;23.298;2022-08-21T07:51:41;12.70;;;7.20;;
7835;SDS011;3963;42.658;23.298;2022-08-21T07:54:08;13.23;;;7.73;;
7835;SDS011;3963;42.658;23.298;2022-08-21T07:56:36;10.67;;;7.10;;
7835;SDS011;3963;42.658;23.298;2022-08-21T07:59:03;11.60;;;7.00;;
7835;SDS011;3963;42.658;23.298;2022-08-21T08:01:30;14.60;;;7.70;;
7835;SDS011;3963;42.658;23.298;2022-08-21T08:03:57;13.50;;;7.97;;
7835;SDS011;3963;42.658;23.298;2022-08-21T08:06:24;11.90;;;7.93;;
7835;SDS011;3963;42.658;23.298;2022-08-21T08:08:51;11.37;;;7.13;;
7835;SDS011;3963;42.658;23.298;2022-08-21T08:11:18;12.47;;;7.67;;
7835;SDS011;3963;42.658;23.298;2022-08-21T08:13:47;13.00;;;7.43;;
7835;SDS011;3963;42.658;23.298;2022-08-21T08:16:16;14.73;;;7.57;;
7835;SDS011;3963;42.658;23.298;2022-08-21T08:18:43;14.70;;;8.03;;
7835;SDS011;3963;42.658;23.298;2022-08-21T08:21:10;14.57;;;7.60;;
7835;SDS011;3963;42.658;23.298;2022-08-21T08:23:38;12.20;;;7.33;;
7835;SDS011;3963;42.658;23.298;2022-08-21T08:26:05;15.30;;;7.43;;
7835;SDS011;3963;42.658;23.298;2022-08-21T08:28:33;13.27;;;7.97;;
7835;SDS011;3963;42.658;23.298;2022-08-21T08:31:01;13.70;;;7.73;;
7835;SDS011;3963;42.658;23.298;2022-08-21T08:33:28;15.63;;;8.33;;
7835;SDS011;3963;42.658;23.298;2022-08-21T08:35:56;11.23;;;6.97;;
7835;SDS011;3963;42.658;23.298;2022-08-21T08:38:24;14.83;;;7.27;;
7835;SDS011;3963;42.658;23.298;2022-08-21T08:40:52;13.47;;;7.63;;
7835;SDS011;3963;42.658;23.298;2022-08-21T08:43:27;13.13;;;7.13;;
7835;SDS011;3963;42.658;23.298;2022-08-21T08:45:55;11.60;;;7.40;;
7835;SDS011;3963;42.658;23.298;2022-08-21T08:48:33;11.57;;;7.17;;
7835;SDS011;3963;42.658;23.298;2022-08-21T08:51:08;12.33;;;6.27;;
7835;SDS011;3963;42.658;23.298;2022-08-21T08:53:45;13.20;;;6.37;;
7835;SDS011;3963;42.658;23.298;2022-08-21T08:56:18;8.83;;;6.13;;
7835;SDS011;3963;42.658;23.298;2022-08-21T08:58:50;13.53;;;7.00;;
7835;SDS011;3963;42.658;23.298;2022-08-21T09:01:19;11.97;;;6.90;;
7835;SDS011;3963;42.658;23.298;2022-08-21T09:03:48;11.00;;;5.70;;
7835;SDS011;3963;42.658;23.298;2022-08-21T09:06:20;8.23;;;5.47;;
7835;SDS011;3963;42.658;23.298;2022-08-21T09:08:58;9.40;;;5.47;;
7835;SDS011;3963;42.658;23.298;2022-08-21T09:11:37;9.47;;;4.53;;
7835;SDS011;3963;42.658;23.298;2022-08-21T09:14:14;8.43;;;5.00;;
7835;SDS011;3963;42.658;23.298;2022-08-21T09:16:53;11.37;;;5.50;;
7835;SDS011;3963;42.658;23.298;2022-08-21T09:19:32;8.53;;;5.03;;
7835;SDS011;3963;42.658;23.298;2022-08-21T09:22:14;10.17;;;5.10;;
7835;SDS011;3963;42.658;23.298;2022-08-21T09:24:51;12.70;;;5.83;;
7835;SDS011;3963;42.658;23.298;2022-08-21T09:27:27;8.67;;;5.50;;
7835;SDS011;3963;42.658;23.298;2022-08-21T09:29:56;10.83;;;5.30;;
7835;SDS011;3963;42.658;23.298;2022-08-21T09:32:24;10.80;;;5.40;;
7835;SDS011;3963;42.658;23.298;2022-08-21T09:34:58;9.57;;;5.30;;
7835;SDS011;3963;42.658;23.298;2022-08-21T09:37:26;8.33;;;5.07;;
7835;SDS011;3963;42.658;23.298;2022-08-21T09:39:55;9.33;;;5.10;;
7835;SDS011;3963;42.658;23.298;2022-08-21T09:42:24;9.27;;;5.00;;
7835;SDS011;3963;42.658;23.298;2022-08-21T09:45:04;9.70;;;5.17;;
7835;SDS011;3963;42.658;23.298;2022-08-21T09:47:33;12.27;;;5.27;;
7835;SDS011;3963;42.658;23.298;2022-08-21T09:50:09;8.10;;;4.93;;
7835;SDS011;3963;42.658;23.298;2022-08-21T09:52:44;8.93;;;5.17;;
7835;SDS011;3963;42.658;23.298;2022-08-21T09:55:19;9.53;;;5.10;;
7835;SDS011;3963;42.658;23.298;2022-08-21T09:58:06;9.57;;;5.30;;
7835;SDS011;3963;42.658;23.298;2022-08-21T10:00:34;10.77;;;5.10;;
7835;SDS011;3963;42.658;23.298;2022-08-21T10:03:09;7.70;;;5.13;;
7835;SDS011;3963;42.658;23.298;2022-08-21T10:05:39;7.33;;;4.80;;
7835;SDS011;3963;42.658;23.298;2022-08-21T10:08:17;7.43;;;4.93;;
7835;SDS011;3963;42.658;23.298;2022-08-21T10:10:44;9.13;;;4.30;;
7835;SDS011;3963;42.658;23.298;2022-08-21T10:13:18;7.97;;;4.40;;
7835;SDS011;3963;42.658;23.298;2022-08-21T10:15:52;10.30;;;4.63;;
7835;SDS011;3963;42.658;23.298;2022-08-21T10:18:26;11.43;;;4.60;;
7835;SDS011;3963;42.658;23.298;2022-08-21T10:21:05;7.67;;;5.27;;
7835;SDS011;3963;42.658;23.298;2022-08-21T10:23:44;9.33;;;5.30;;
7835;SDS011;3963;42.658;23.298;2022-08-21T10:26:23;8.20;;;5.30;;
7835;SDS011;3963;42.658;23.298;2022-08-21T10:29:01;13.33;;;5.40;;
7835;SDS011;3963;42.658;23.298;2022-08-21T10:31:32;6.83;;;5.17;;
7835;SDS011;3963;42.658;23.298;2022-08-21T10:34:19;10.40;;;5.40;;
7835;SDS011;3963;42.658;23.298;2022-08-21T10:37:01;8.77;;;5.07;;
7835;SDS011;3963;42.658;23.298;2022-08-21T10:39:39;11.63;;;4.93;;
7835;SDS011;3963;42.658;23.298;2022-08-21T10:42:22;6.20;;;4.75;;
7835;SDS011;3963;42.658;23.298;2022-08-21T10:44:58;7.82;;;5.07;;
7835;SDS011;3963;42.658;23.298;2022-08-21T10:47:34;9.02;;;5.53;;
7835;SDS011;3963;42.658;23.298;2022-08-21T10:50:08;6.93;;;5.40;;
7835;SDS011;3963;42.658;23.298;2022-08-21T10:55:33;10.13;;;5.38;;
7835;SDS011;3963;42.658;23.298;2022-08-21T10:58:05;8.73;;;5.15;;
7835;SDS011;3963;42.658;23.298;2022-08-21T11:00:40;7.90;;;4.28;;
7835;SDS011;3963;42.658;23.298;2022-08-21T11:03:13;9.77;;;4.72;;
7835;SDS011;3963;42.658;23.298;2022-08-21T11:05:45;8.23;;;4.65;;
7835;SDS011;3963;42.658;23.298;2022-08-21T11:08:17;11.15;;;5.03;;
7835;SDS011;3963;42.658;23.298;2022-08-21T11:10:50;7.32;;;5.43;;
7835;SDS011;3963;42.658;23.298;2022-08-21T11:13:22;8.75;;;6.28;;
7835;SDS011;3963;42.658;23.298;2022-08-21T11:15:56;8.23;;;4.50;;
7835;SDS011;3963;42.658;23.298;2022-08-21T11:18:31;11.38;;;5.50;;
7835;SDS011;3963;42.658;23.298;2022-08-21T11:21:04;6.35;;;4.53;;
7835;SDS011;3963;42.658;23.298;2022-08-21T11:23:43;9.52;;;4.32;;
7835;SDS011;3963;42.658;23.298;2022-08-21T11:26:15;8.52;;;4.55;;
7835;SDS011;3963;42.658;23.298;2022-08-21T11:28:51;11.25;;;5.10;;
7835;SDS011;3963;42.658;23.298;2022-08-21T11:31:32;7.45;;;4.65;;
7835;SDS011;3963;42.658;23.298;2022-08-21T11:34:14;6.03;;;4.30;;
7835;SDS011;3963;42.658;23.298;2022-08-21T11:36:55;10.00;;;4.17;;
7835;SDS011;3963;42.658;23.298;2022-08-21T11:39:30;7.37;;;3.83;;
7835;SDS011;3963;42.658;23.298;2022-08-21T11:42:06;9.87;;;4.63;;
7835;SDS011;3963;42.658;23.298;2022-08-21T11:44:44;9.50;;;4.73;;
7835;SDS011;3963;42.658;23.298;2022-08-21T11:47:19;12.63;;;6.93;;
7835;SDS011;3963;42.658;23.298;2022-08-21T11:49:57;5.90;;;4.40;;
7835;SDS011;3963;42.658;23.298;2022-08-21T11:52:40;8.47;;;4.37;;
7835;SDS011;3963;42.658;23.298;2022-08-21T11:55:14;11.10;;;5.13;;
7835;SDS011;3963;42.658;23.298;2022-08-21T11:57:47;11.10;;;4.93;;
7835;SDS011;3963;42.658;23.298;2022-08-21T12:00:19;8.73;;;4.37;;
7835;SDS011;3963;42.658;23.298;2022-08-21T12:02:51;7.97;;;4.53;;
7835;SDS011;3963;42.658;23.298;2022-08-21T12:05:22;9.17;;;5.50;;
7835;SDS011;3963;42.658;23.298;2022-08-21T12:08:00;8.17;;;4.47;;
7835;SDS011;3963;42.658;23.298;2022-08-21T12:10:35;11.13;;;4.80;;
7835;SDS011;3963;42.658;23.298;2022-08-21T12:13:20;7.47;;;4.73;;
7835;SDS011;3963;42.658;23.298;2022-08-21T12:15:51;9.20;;;4.33;;
7835;SDS011;3963;42.658;23.298;2022-08-21T12:18:20;7.90;;;4.37;;
7835;SDS011;3963;42.658;23.298;2022-08-21T12:21:00;8.90;;;5.20;;
7835;SDS011;3963;42.658;23.298;2022-08-21T12:23:44;7.33;;;4.63;;
7835;SDS011;3963;42.658;23.298;2022-08-21T12:26:25;11.13;;;6.23;;
7835;SDS011;3963;42.658;23.298;2022-08-21T12:31:53;11.50;;;6.00;;
7835;SDS011;3963;42.658;23.298;2022-08-21T12:34:29;8.50;;;4.73;;
7835;SDS011;3963;42.658;23.298;2022-08-21T12:37:02;6.93;;;4.80;;
7835;SDS011;3963;42.658;23.298;2022-08-21T12:39:33;8.20;;;4.50;;
7835;SDS011;3963;42.658;23.298;2022-08-21T12:42:06;7.07;;;4.83;;
7835;SDS011;3963;42.658;23.298;2022-08-21T12:44:42;10.10;;;4.43;;
7835;SDS011;3963;42.658;23.298;2022-08-21T12:47:16;7.03;;;4.47;;
7835;SDS011;3963;42.658;23.298;2022-08-21T12:49:51;8.47;;;3.97;;
7835;SDS011;3963;42.658;23.298;2022-08-21T12:52:22;9.03;;;4.70;;
7835;SDS011;3963;42.658;23.298;2022-08-21T12:54:54;8.63;;;4.80;;
7835;SDS011;3963;42.658;23.298;2022-08-21T12:57:23;6.57;;;5.27;;
7835;SDS011;3963;42.658;23.298;2022-08-21T12:59:52;9.63;;;5.07;;
7835;SDS011;3963;42.658;23.298;2022-08-21T13:02:22;9.80;;;6.00;;
7835;SDS011;3963;42.658;23.298;2022-08-21T13:04:51;12.53;;;5.40;;
7835;SDS011;3963;42.658;23.298;2022-08-21T13:07:22;6.47;;;3.90;;
7835;SDS011;3963;42.658;23.298;2022-08-21T13:09:53;9.97;;;5.40;;
7835;SDS011;3963;42.658;23.298;2022-08-21T13:12:24;9.37;;;5.10;;
7835;SDS011;3963;42.658;23.298;2022-08-21T13:14:55;7.90;;;5.00;;
7835;SDS011;3963;42.658;23.298;2022-08-21T13:17:24;9.67;;;5.30;;
7835;SDS011;3963;42.658;23.298;2022-08-21T13:19:57;12.83;;;4.70;;
7835;SDS011;3963;42.658;23.298;2022-08-21T13:22:25;7.57;;;4.73;;
7835;SDS011;3963;42.658;23.298;2022-08-21T13:24:53;7.97;;;4.50;;
7835;SDS011;3963;42.658;23.298;2022-08-21T13:27:22;7.23;;;5.17;;
7835;SDS011;3963;42.658;23.298;2022-08-21T13:30:04;9.50;;;4.40;;
7835;SDS011;3963;42.658;23.298;2022-08-21T13:32:37;8.70;;;4.80;;
7835;SDS011;3963;42.658;23.298;2022-08-21T13:35:08;11.17;;;5.23;;
7835;SDS011;3963;42.658;23.298;2022-08-21T13:37:41;9.20;;;5.10;;
7835;SDS011;3963;42.658;23.298;2022-08-21T13:40:10;8.03;;;4.80;;
7835;SDS011;3963;42.658;23.298;2022-08-21T13:42:42;6.37;;;4.40;;
7835;SDS011;3963;42.658;23.298;2022-08-21T13:45:14;8.23;;;5.17;;
7835;SDS011;3963;42.658;23.298;2022-08-21T13:47:44;9.20;;;4.77;;
7835;SDS011;3963;42.658;23.298;2022-08-21T13:50:14;10.53;;;6.40;;
7835;SDS011;3963;42.658;23.298;2022-08-21T13:52:53;7.80;;;4.47;;
7835;SDS011;3963;42.658;23.298;2022-08-21T13:55:23;9.80;;;5.90;;
7835;SDS011;3963;42.658;23.298;2022-08-21T13:58:02;9.10;;;5.43;;
7835;SDS011;3963;42.658;23.298;2022-08-21T14:00:31;8.70;;;5.10;;
7835;SDS011;3963;42.658;23.298;2022-08-21T14:03:02;10.00;;;5.57;;
7835;SDS011;3963;42.658;23.298;2022-08-21T14:05:33;8.30;;;4.80;;
7835;SDS011;3963;42.658;23.298;2022-08-21T14:08:05;8.43;;;5.43;;
7835;SDS011;3963;42.658;23.298;2022-08-21T14:10:40;7.80;;;4.20;;
7835;SDS011;3963;42.658;23.298;2022-08-21T14:13:18;8.13;;;4.57;;
7835;SDS011;3963;42.658;23.298;2022-08-21T14:15:56;9.27;;;4.40;;
7835;SDS011;3963;42.658;23.298;2022-08-21T14:18:24;9.00;;;4.83;;
7835;SDS011;3963;42.658;23.298;2022-08-21T14:20:51;7.83;;;4.90;;
7835;SDS011;3963;42.658;23.298;2022-08-21T14:23:30;9.93;;;5.40;;
7835;SDS011;3963;42.658;23.298;2022-08-21T14:25:58;9.57;;;5.23;;
7835;SDS011;3963;42.658;23.298;2022-08-21T14:28:30;11.53;;;5.83;;
7835;SDS011;3963;42.658;23.298;2022-08-21T14:30:59;14.07;;;6.97;;
7835;SDS011;3963;42.658;23.298;2022-08-21T14:33:38;14.97;;;6.80;;
7835;SDS011;3963;42.658;23.298;2022-08-21T14:36:05;12.27;;;6.50;;
7835;SDS011;3963;42.658;23.298;2022-08-21T14:38:34;9.53;;;6.97;;
7835;SDS011;3963;42.658;23.298;2022-08-21T14:41:03;17.33;;;7.40;;
7835;SDS011;3963;42.658;23.298;2022-08-21T14:43:38;11.33;;;7.27;;
7835;SDS011;3963;42.658;23.298;2022-08-21T14:46:05;11.30;;;7.30;;
7835;SDS011;3963;42.658;23.298;2022-08-21T14:48:32;12.23;;;7.57;;
7835;SDS011;3963;42.658;23.298;2022-08-21T14:50:59;12.40;;;7.50;;
7835;SDS011;3963;42.658;23.298;2022-08-21T14:53:26;14.47;;;7.37;;
7835;SDS011;3963;42.658;23.298;2022-08-21T14:55:53;8.83;;;6.53;;
7835;SDS011;3963;42.658;23.298;2022-08-21T14:58:32;14.60;;;7.53;;
7835;SDS011;3963;42.658;23.298;2022-08-21T15:01:03;16.43;;;7.97;;
7835;SDS011;3963;42.658;23.298;2022-08-21T15:03:32;11.80;;;7.23;;
7835;SDS011;3963;42.658;23.298;2022-08-21T15:06:00;13.00;;;6.70;;
7835;SDS011;3963;42.658;23.298;2022-08-21T15:08:28;11.70;;;6.80;;
7835;SDS011;3963;42.658;23.298;2022-08-21T15:10:54;11.93;;;7.30;;
7835;SDS011;3963;42.658;23.298;2022-08-21T15:13:22;17.40;;;8.07;;
7835;SDS011;3963;42.658;23.298;2022-08-21T15:15:50;11.00;;;7.10;;